METAR-berichten van nabijgelegen luchthavens

 

EHBK - Maastricht-Aachen Airport
Afstand tot station: WZW 9km
Bijgewerkt: 17-12-2017 06:25
Zwaar bewolkt
Zwaar bewolkt
 Wind vanuit WZW
Wind: WZW 13 km/h
Temperatuur: 1°C
Wind Chill: -3°C
Dauwpunt: 0°C
Vochtigheid: 93%
Luchtdruk: 1021 hPa
Bewolking: Zwaar bewolkt
Zicht: 7 km
Details bewolking: Meestal bewolkt 122 m
Zwaar bewolkt 152 m
2017/12/17 05:25 EHBK 170525Z AUTO 24007KT 210V270 7000 BKN004 OVC005 01/00 Q1021 TEMPO BKN002
ETNG - NATO Air Base Geilenkirchen
Afstand tot station: ONO 11km
Bijgewerkt: 15-12-2017 18:50
NIET actueel
Meestal bewolkt
Meestal bewolkt
 Wind vanuit O
Wind: O 7 km/h
Temperatuur: 3°C
Wind Chill: 1°C
Dauwpunt: 2°C
Vochtigheid: 93%
Luchtdruk: 998 hPa
Bewolking: Meestal bewolkt
Zicht: 10 km
Details bewolking: Meestal bewolkt 762 m
2017/12/15 17:50 ETNG 151750Z 08004KT 9999 BKN025 03/02 Q0998